Time;durP1;ratioP1;P1;durP2;ratioP2;P2;SDS_P1;SDS_P2;PMS_P1;PMS_P2;Temp;Humidity;BMP_temperature;BMP_pressure;BME280_temperature;BME280_humidity;BME280_pressure;Samples;Min_cycle;Max_cycle;Signal;HPM_P1;HPM_P2
2023/12/24 00:01:35;;;;;;;1.83;1.42;;;22.80;67.20;;;;;;6235777;28;84463;-66
2023/12/24 00:04:37;;;;;;;2.10;1.70;;;22.80;67.10;;;;;;6222734;28;83926;-66
2023/12/24 00:07:39;;;;;;;1.80;1.50;;;22.80;67.20;;;;;;6224687;28;83318;-65
2023/12/24 00:10:42;;;;;;;1.80;1.50;;;22.80;67.20;;;;;;6241872;28;83298;-66
2023/12/24 00:13:44;;;;;;;3.08;2.08;;;22.80;67.20;;;;;;6232535;28;84116;-66
2023/12/24 00:16:46;;;;;;;1.67;1.52;;;22.70;67.30;;;;;;6215340;28;84942;-66
2023/12/24 00:19:48;;;;;;;1.85;1.65;;;22.70;67.20;;;;;;6219272;28;84136;-66
2023/12/24 00:23:05;;;;;;;1.77;1.67;;;22.70;67.30;;;;;;6222583;28;84116;-66
2023/12/24 00:26:08;;;;;;;2.22;1.80;;;22.70;67.30;;;;;;6224735;28;84178;-66
2023/12/24 00:29:10;;;;;;;2.10;1.90;;;22.70;67.40;;;;;;6226961;28;84084;-66
2023/12/24 00:32:12;;;;;;;3.03;2.05;;;22.70;67.30;;;;;;6222367;28;84480;-66
2023/12/24 00:35:14;;;;;;;3.10;2.30;;;22.70;67.40;;;;;;6211346;28;83924;-66
2023/12/24 00:38:16;;;;;;;2.25;2.05;;;22.70;67.40;;;;;;6212203;28;83602;-66
2023/12/24 00:41:19;;;;;;;2.30;2.10;;;22.70;67.40;;;;;;6223667;28;83539;-66
2023/12/24 00:44:21;;;;;;;2.50;2.30;;;22.70;67.40;;;;;;6212712;28;82938;-66
2023/12/24 00:47:23;;;;;;;2.65;2.42;;;22.70;67.50;;;;;;6227865;28;84917;-65
2023/12/24 00:50:25;;;;;;;3.20;2.47;;;22.70;67.50;;;;;;6222711;28;82935;-65
2023/12/24 00:53:27;;;;;;;2.85;2.55;;;22.70;67.40;;;;;;6222488;28;84108;-65
2023/12/24 00:56:31;;;;;;;3.03;2.60;;;22.70;67.40;;;;;;6215765;28;83964;-66
2023/12/24 00:59:32;;;;;;;2.72;2.53;;;22.70;67.50;;;;;;6230650;28;84064;-66
2023/12/24 01:02:34;;;;;;;3.22;2.58;;;22.70;67.50;;;;;;6222511;28;82904;-65
2023/12/24 01:05:36;;;;;;;4.22;3.25;;;22.60;67.50;;;;;;6209932;28;84383;-65
2023/12/24 01:08:39;;;;;;;2.83;2.60;;;22.60;67.50;;;;;;6212291;28;83302;-65
2023/12/24 01:11:43;;;;;;;3.10;2.70;;;22.60;67.60;;;;;;6228522;28;84147;-65
2023/12/24 01:14:45;;;;;;;3.10;2.63;;;22.60;67.50;;;;;;6226258;28;84016;-66
2023/12/24 01:17:46;;;;;;;3.10;2.80;;;22.60;67.50;;;;;;6226168;28;83886;-66
2023/12/24 01:20:48;;;;;;;3.20;2.78;;;22.60;67.60;;;;;;6227253;28;84053;-66
2023/12/24 01:23:50;;;;;;;3.33;3.00;;;22.60;67.60;;;;;;6213114;28;84113;-65
2023/12/24 01:26:54;;;;;;;4.32;3.10;;;22.50;67.60;;;;;;6229983;28;83052;-65
2023/12/24 01:29:56;;;;;;;3.58;2.85;;;22.60;67.70;;;;;;6221001;28;84074;-65
2023/12/24 01:32:58;;;;;;;2.92;2.63;;;22.60;67.70;;;;;;6223800;28;84097;-66
2023/12/24 01:36:00;;;;;;;3.15;2.72;;;22.60;67.70;;;;;;6215180;28;83900;-65
2023/12/24 01:39:02;;;;;;;3.58;2.90;;;22.60;67.70;;;;;;6223466;28;83269;-66
2023/12/24 01:42:06;;;;;;;3.53;2.95;;;22.50;67.70;;;;;;6210685;28;84000;-65
2023/12/24 01:45:08;;;;;;;3.10;2.80;;;22.60;67.70;;;;;;6226103;28;84020;-65
2023/12/24 01:48:12;;;;;;;3.00;2.70;;;22.60;67.70;;;;;;6220236;28;85218;-65
2023/12/24 01:51:14;;;;;;;2.60;2.40;;;22.50;67.60;;;;;;6232101;28;83291;-65
2023/12/24 01:54:16;;;;;;;3.40;2.92;;;22.50;67.60;;;;;;6215498;28;82888;-65
2023/12/24 01:57:20;;;;;;;4.32;3.15;;;22.50;67.60;;;;;;6223214;28;82970;-65
2023/12/24 02:00:22;;;;;;;3.42;2.90;;;22.50;67.70;;;;;;6231062;28;84147;-65
2023/12/24 02:03:25;;;;;;;4.05;3.00;;;22.50;67.70;;;;;;6221652;28;84078;-65
2023/12/24 02:06:27;;;;;;;3.10;2.75;;;22.50;67.70;;;;;;6233212;28;83255;-65
2023/12/24 02:09:29;;;;;;;3.08;2.78;;;22.50;67.70;;;;;;6221379;28;83281;-65
2023/12/24 02:12:33;;;;;;;3.22;2.72;;;22.50;67.80;;;;;;6222084;28;83963;-66
2023/12/24 02:15:36;;;;;;;2.95;2.58;;;22.50;67.80;;;;;;6223960;28;84029;-65
2023/12/24 02:18:40;;;;;;;3.00;2.70;;;22.50;67.80;;;;;;6213910;28;84575;-65
2023/12/24 02:21:43;;;;;;;3.03;2.65;;;22.40;67.70;;;;;;6223336;28;83963;-66
2023/12/24 02:24:45;;;;;;;2.67;2.47;;;22.50;67.80;;;;;;6217942;28;84198;-65
2023/12/24 02:27:52;;;;;;;2.92;2.60;;;22.40;67.90;;;;;;6223816;28;83950;-65
2023/12/24 02:30:58;;;;;;;2.75;2.53;;;22.40;67.80;;;;;;6211631;28;84214;-65
2023/12/24 02:34:03;;;;;;;2.80;2.50;;;22.40;67.90;;;;;;6220040;28;82952;-65
2023/12/24 02:37:08;;;;;;;2.97;2.67;;;22.40;67.80;;;;;;6222064;28;82763;-66
2023/12/24 02:40:10;;;;;;;3.47;2.83;;;22.40;67.80;;;;;;6216297;28;82002;-66
2023/12/24 02:43:12;;;;;;;3.35;2.80;;;22.40;67.80;;;;;;6220542;28;84035;-66
2023/12/24 02:46:14;;;;;;;2.80;2.42;;;22.40;67.70;;;;;;6209381;28;83840;-65
2023/12/24 02:49:18;;;;;;;2.88;2.50;;;22.40;67.70;;;;;;6218301;28;85023;-66
2023/12/24 02:52:21;;;;;;;2.65;2.38;;;22.40;67.90;;;;;;6222379;28;84413;-65
2023/12/24 02:55:23;;;;;;;3.05;2.58;;;22.40;67.80;;;;;;6215496;28;84089;-66
2023/12/24 02:58:25;;;;;;;2.42;2.20;;;22.40;67.80;;;;;;6221663;28;83956;-66
2023/12/24 03:01:27;;;;;;;2.97;2.60;;;22.30;67.70;;;;;;6225657;28;84568;-65
2023/12/24 03:04:29;;;;;;;3.33;2.53;;;22.30;67.70;;;;;;6232206;28;84042;-66
2023/12/24 03:07:32;;;;;;;4.30;2.67;;;22.30;67.70;;;;;;6231441;28;83989;-66
2023/12/24 03:10:34;;;;;;;3.50;2.58;;;22.40;67.80;;;;;;6219581;28;83315;-66
2023/12/24 03:13:36;;;;;;;2.75;2.42;;;22.40;67.90;;;;;;6237096;28;84490;-66
2023/12/24 03:16:38;;;;;;;2.22;2.03;;;22.30;67.80;;;;;;6225249;28;84457;-65
2023/12/24 03:19:40;;;;;;;2.67;2.33;;;22.30;67.80;;;;;;6216658;28;84927;-66
2023/12/24 03:22:43;;;;;;;2.40;2.20;;;22.30;67.80;;;;;;6220471;28;83970;-66
2023/12/24 03:25:45;;;;;;;2.30;2.10;;;22.30;67.80;;;;;;6233170;28;84764;-66
2023/12/24 03:28:49;;;;;;;2.20;2.00;;;22.30;67.90;;;;;;6229929;28;84073;-66
2023/12/24 03:31:51;;;;;;;3.30;2.38;;;22.30;67.90;;;;;;6212648;28;83202;-66
2023/12/24 03:34:52;;;;;;;4.00;2.58;;;22.30;68.00;;;;;;6224971;28;84003;-66
2023/12/24 03:37:56;;;;;;;2.60;2.30;;;22.30;67.90;;;;;;6216934;28;83962;-66
2023/12/24 03:40:58;;;;;;;2.20;2.00;;;22.30;67.90;;;;;;6224717;28;84307;-66
2023/12/24 03:44:01;;;;;;;3.10;2.20;;;22.20;68.80;;;;;;6235594;28;84026;-66
2023/12/24 03:47:03;;;;;;;2.58;2.38;;;22.20;67.70;;;;;;6234427;28;83983;-66
2023/12/24 03:50:06;;;;;;;2.33;2.13;;;22.20;67.80;;;;;;6228270;28;84618;-66
2023/12/24 03:53:10;;;;;;;2.20;2.00;;;22.20;67.80;;;;;;6229391;28;84076;-66
2023/12/24 03:56:11;;;;;;;2.63;2.13;;;22.30;67.90;;;;;;6234689;28;84434;-66
2023/12/24 03:59:13;;;;;;;2.47;2.22;;;22.30;67.90;;;;;;6224205;28;82927;-66
2023/12/24 04:02:15;;;;;;;3.08;2.30;;;22.20;67.80;;;;;;6226530;28;84289;-66
2023/12/24 04:05:17;;;;;;;2.42;2.17;;;22.20;67.70;;;;;;6215997;28;84474;-66
2023/12/24 04:08:21;;;;;;;3.38;2.50;;;22.20;67.80;;;;;;6227403;28;82956;-66
2023/12/24 04:11:24;;;;;;;2.10;1.80;;;22.20;67.70;;;;;;6228429;28;83272;-66
2023/12/24 04:14:26;;;;;;;2.25;2.05;;;22.20;67.90;;;;;;6220910;28;85533;-66
2023/12/24 04:17:28;;;;;;;1.95;1.73;;;22.20;67.90;;;;;;6225655;28;83612;-66
2023/12/24 04:20:30;;;;;;;2.03;1.83;;;22.20;67.80;;;;;;6218808;28;84969;-66
2023/12/24 04:23:33;;;;;;;2.25;1.92;;;22.20;67.90;;;;;;6223553;28;83233;-66
2023/12/24 04:26:36;;;;;;;2.90;2.22;;;22.10;67.90;;;;;;6221750;28;84156;-66
2023/12/24 04:29:38;;;;;;;2.63;2.13;;;22.10;67.90;;;;;;6223225;28;84370;-66
2023/12/24 04:32:40;;;;;;;2.13;1.90;;;22.10;67.90;;;;;;6218489;28;84238;-66
2023/12/24 04:35:44;;;;;;;2.15;1.90;;;22.10;68.10;;;;;;6223146;28;84095;-66
2023/12/24 04:38:48;;;;;;;1.88;1.73;;;22.10;68.10;;;;;;6221928;28;84536;-65
2023/12/24 04:41:50;;;;;;;2.00;1.80;;;22.20;68.20;;;;;;6224907;28;82338;-66
2023/12/24 04:44:52;;;;;;;3.15;2.08;;;22.20;68.00;;;;;;6224264;28;83381;-66
2023/12/24 04:47:58;;;;;;;2.17;1.85;;;22.10;67.90;;;;;;6220818;28;83370;-65
2023/12/24 04:51:00;;;;;;;2.05;1.85;;;22.20;68.00;;;;;;6223265;28;85007;-65
2023/12/24 04:54:04;;;;;;;2.00;1.80;;;22.20;67.90;;;;;;6226367;28;84051;-66
2023/12/24 04:57:05;;;;;;;2.35;1.83;;;22.20;67.70;;;;;;6217743;28;84103;-65
2023/12/24 05:00:08;;;;;;;2.40;1.75;;;22.20;67.70;;;;;;6217657;28;84001;-65
2023/12/24 05:03:10;;;;;;;1.95;1.55;;;22.30;67.70;;;;;;6229061;28;84320;-65
2023/12/24 05:06:13;;;;;;;2.38;1.65;;;22.30;67.60;;;;;;6230164;28;84029;-66
2023/12/24 05:09:16;;;;;;;3.35;2.10;;;22.30;67.50;;;;;;6223226;28;84031;-65
2023/12/24 05:12:18;;;;;;;2.05;1.70;;;22.30;67.40;;;;;;6222732;28;83269;-66
2023/12/24 05:15:20;;;;;;;1.52;1.42;;;22.40;67.40;;;;;;6222273;28;82949;-65
2023/12/24 05:18:22;;;;;;;1.60;1.50;;;22.40;67.40;;;;;;6217603;28;84385;-65
2023/12/24 05:21:25;;;;;;;2.20;1.70;;;22.40;67.30;;;;;;6218771;28;84917;-66
2023/12/24 05:24:28;;;;;;;2.08;1.67;;;22.40;67.30;;;;;;6223919;28;83099;-65
2023/12/24 05:27:30;;;;;;;1.95;1.50;;;22.40;67.30;;;;;;6215714;28;83973;-66
2023/12/24 05:30:32;;;;;;;1.65;1.45;;;22.40;67.20;;;;;;6213840;28;84104;-66
2023/12/24 05:33:34;;;;;;;1.83;1.50;;;22.40;67.20;;;;;;6211022;28;84367;-66
2023/12/24 05:36:37;;;;;;;1.75;1.40;;;22.40;67.30;;;;;;6221993;28;83805;-65
2023/12/24 05:39:43;;;;;;;1.60;1.50;;;22.40;67.20;;;;;;6210277;28;84055;-66
2023/12/24 05:42:45;;;;;;;2.00;1.70;;;22.40;67.40;;;;;;6222791;28;83313;-66
2023/12/24 05:45:47;;;;;;;1.60;1.40;;;22.40;67.50;;;;;;6215369;28;84053;-65
2023/12/24 05:48:49;;;;;;;1.73;1.55;;;22.40;67.60;;;;;;6224908;28;84098;-66
2023/12/24 05:51:51;;;;;;;1.80;1.55;;;22.30;67.40;;;;;;6209498;28;84198;-65
2023/12/24 05:54:54;;;;;;;3.65;1.92;;;22.30;67.40;;;;;;6216820;28;84095;-65
2023/12/24 05:57:56;;;;;;;3.03;1.77;;;22.30;68.30;;;;;;6223530;28;82917;-66
2023/12/24 06:00:58;;;;;;;1.80;1.50;;;22.30;67.40;;;;;;6215027;28;84043;-66
2023/12/24 06:04:00;;;;;;;1.63;1.30;;;22.30;67.30;;;;;;6218113;28;84016;-65
2023/12/24 06:07:04;;;;;;;1.50;1.40;;;22.30;67.30;;;;;;6228292;28;83969;-66
2023/12/24 06:10:09;;;;;;;1.35;1.25;;;22.30;67.40;;;;;;6231726;28;83051;-65
2023/12/24 06:13:11;;;;;;;1.23;1.13;;;22.20;67.30;;;;;;6218698;28;83724;-66
2023/12/24 06:16:13;;;;;;;1.75;1.38;;;22.20;67.40;;;;;;6216909;28;84058;-65
2023/12/24 06:19:15;;;;;;;3.80;1.90;;;22.20;67.40;;;;;;6222299;28;84108;-65
2023/12/24 06:22:17;;;;;;;1.42;1.33;;;22.20;67.50;;;;;;6210378;28;85061;-66
2023/12/24 06:25:21;;;;;;;2.60;1.58;;;22.20;67.60;;;;;;6226406;28;83998;-65
2023/12/24 06:28:23;;;;;;;2.95;1.70;;;22.20;67.60;;;;;;6229206;28;83988;-65
2023/12/24 06:31:25;;;;;;;2.08;1.45;;;22.20;67.60;;;;;;6232254;28;84041;-65
2023/12/24 06:34:27;;;;;;;1.35;1.20;;;22.10;67.50;;;;;;6209945;28;82926;-65
2023/12/24 06:37:29;;;;;;;2.22;1.40;;;22.10;67.60;;;;;;6221471;28;84415;-65
2023/12/24 06:40:32;;;;;;;1.27;1.17;;;22.20;67.70;;;;;;6232763;28;83286;-65
2023/12/24 06:43:34;;;;;;;1.60;1.30;;;22.10;67.60;;;;;;6214890;28;83228;-65
2023/12/24 06:46:36;;;;;;;1.30;1.20;;;22.10;67.60;;;;;;6222441;28;83999;-65
2023/12/24 06:49:41;;;;;;;1.33;1.23;;;22.20;67.50;;;;;;6233346;28;83546;-65
2023/12/24 06:52:43;;;;;;;1.50;1.30;;;22.20;67.50;;;;;;6222938;28;85164;-66
2023/12/24 06:55:46;;;;;;;1.90;1.40;;;22.20;67.40;;;;;;6224041;28;84002;-65
2023/12/24 06:58:48;;;;;;;1.65;1.38;;;22.30;67.40;;;;;;6236192;28;83959;-65
2023/12/24 07:01:50;;;;;;;2.50;1.70;;;22.30;67.40;;;;;;6235170;28;84069;-65
2023/12/24 07:04:52;;;;;;;2.22;1.48;;;22.30;67.20;;;;;;6235191;28;84084;-65
2023/12/24 07:07:54;;;;;;;1.88;1.55;;;22.30;67.20;;;;;;6222880;28;83938;-65
2023/12/24 07:10:58;;;;;;;1.40;1.27;;;22.30;67.20;;;;;;6218249;28;84105;-65
2023/12/24 07:14:00;;;;;;;3.88;2.00;;;22.40;67.10;;;;;;6221022;28;82202;-65
2023/12/24 07:17:02;;;;;;;1.40;1.27;;;22.40;67.10;;;;;;6225739;28;83911;-65
2023/12/24 07:20:04;;;;;;;1.52;1.30;;;22.40;67.10;;;;;;6218259;28;84062;-65
2023/12/24 07:23:06;;;;;;;1.30;1.17;;;22.50;67.10;;;;;;6222521;28;84930;-65
2023/12/24 07:26:09;;;;;;;1.70;1.40;;;22.50;66.90;;;;;;6226038;28;83677;-65
2023/12/24 07:29:11;;;;;;;1.40;1.25;;;22.50;66.90;;;;;;6220728;28;84305;-65
2023/12/24 07:32:13;;;;;;;1.20;1.10;;;22.50;66.90;;;;;;6224144;28;83913;-65
2023/12/24 07:35:17;;;;;;;1.42;1.30;;;22.50;66.90;;;;;;6231069;28;82822;-66
2023/12/24 07:38:19;;;;;;;1.65;1.40;;;22.50;66.90;;;;;;6224693;28;82926;-65
2023/12/24 07:41:25;;;;;;;1.48;1.30;;;22.60;66.90;;;;;;6218311;28;84703;-65
2023/12/24 07:44:27;;;;;;;1.60;1.33;;;22.60;66.90;;;;;;6219947;28;83532;-65
2023/12/24 07:47:30;;;;;;;3.40;1.55;;;22.60;66.90;;;;;;6233121;28;83996;-65
2023/12/24 07:50:32;;;;;;;1.60;1.27;;;22.60;66.90;;;;;;6233961;28;83930;-65
2023/12/24 07:53:34;;;;;;;1.88;1.38;;;22.60;66.80;;;;;;6221269;28;84909;-65
2023/12/24 07:56:38;;;;;;;1.48;1.20;;;22.60;66.80;;;;;;6227503;28;84041;-65
2023/12/24 07:59:40;;;;;;;1.63;1.40;;;22.60;66.80;;;;;;6214838;28;82937;-65
2023/12/24 08:02:42;;;;;;;1.80;1.30;;;22.60;66.80;;;;;;6215842;28;84172;-65
2023/12/24 08:05:44;;;;;;;1.88;1.40;;;22.60;66.80;;;;;;6215814;28;84303;-65
2023/12/24 08:08:46;;;;;;;1.50;1.33;;;22.60;66.70;;;;;;6223831;28;84111;-65
2023/12/24 08:11:49;;;;;;;1.55;1.45;;;22.70;66.90;;;;;;6222865;28;84627;-65
2023/12/24 08:14:51;;;;;;;1.42;1.30;;;22.60;66.70;;;;;;6214085;28;82189;-65
2023/12/24 08:17:53;;;;;;;1.33;1.20;;;22.70;66.90;;;;;;6222940;28;84106;-65
2023/12/24 08:20:55;;;;;;;3.58;1.90;;;22.70;66.90;;;;;;6220187;28;84338;-65
2023/12/24 08:23:57;;;;;;;1.70;1.30;;;22.70;66.90;;;;;;6218155;28;85006;-65
2023/12/24 08:27:00;;;;;;;1.20;1.10;;;22.70;66.90;;;;;;6212008;28;84076;-66
2023/12/24 08:30:02;;;;;;;1.27;1.17;;;22.70;66.90;;;;;;6231268;28;84135;-65
2023/12/24 08:33:04;;;;;;;1.55;1.20;;;22.60;66.90;;;;;;6231840;28;82897;-65
2023/12/24 08:36:08;;;;;;;1.80;1.35;;;22.60;66.90;;;;;;6230449;28;84003;-65
2023/12/24 08:39:10;;;;;;;1.45;1.35;;;22.60;67.10;;;;;;6218672;28;84046;-65
2023/12/24 08:42:13;;;;;;;4.10;2.00;;;22.60;67.10;;;;;;6221766;28;84044;-65
2023/12/24 08:45:15;;;;;;;2.70;1.42;;;22.60;67.10;;;;;;6220366;28;83533;-65
2023/12/24 08:48:17;;;;;;;3.42;1.60;;;22.60;67.20;;;;;;6223437;28;85514;-65
2023/12/24 08:51:19;;;;;;;1.48;1.27;;;22.60;67.30;;;;;;6223751;28;82853;-66
2023/12/24 08:54:21;;;;;;;1.60;1.35;;;22.60;67.40;;;;;;6215793;28;85002;-65
2023/12/24 08:57:24;;;;;;;1.20;1.10;;;22.60;67.50;;;;;;6223617;28;83966;-66
2023/12/24 09:00:26;;;;;;;1.67;1.30;;;22.60;67.50;;;;;;6223736;28;84041;-65
2023/12/24 09:03:28;;;;;;;2.00;1.50;;;22.60;67.60;;;;;;6224349;28;84375;-66
2023/12/24 09:06:30;;;;;;;1.48;1.30;;;22.50;67.60;;;;;;6214194;28;84027;-65
2023/12/24 09:09:32;;;;;;;3.58;1.83;;;22.60;67.70;;;;;;6217383;28;84018;-66
2023/12/24 09:12:36;;;;;;;2.88;1.70;;;22.60;67.70;;;;;;6223001;28;84022;-66
2023/12/24 09:15:38;;;;;;;5.30;2.13;;;22.60;67.70;;;;;;6190657;28;82158;-65
2023/12/24 09:18:40;;;;;;;1.63;1.30;;;22.60;67.70;;;;;;6212066;28;84291;-65
2023/12/24 09:21:42;;;;;;;1.58;1.13;;;22.60;67.70;;;;;;6189065;28;82840;-66
2023/12/24 09:24:44;;;;;;;1.35;1.25;;;22.60;67.70;;;;;;6186315;28;85014;-65
2023/12/24 09:27:47;;;;;;;3.20;1.80;;;22.60;67.70;;;;;;6193233;28;82875;-65
2023/12/24 09:30:50;;;;;;;2.08;1.20;;;22.60;67.80;;;;;;6206344;28;84030;-65
2023/12/24 09:33:51;;;;;;;5.35;2.05;;;22.70;67.80;;;;;;6204510;28;84127;-66
2023/12/24 09:36:53;;;;;;;1.40;1.30;;;22.70;67.80;;;;;;6200540;28;85296;-66
2023/12/24 09:39:55;;;;;;;1.50;1.27;;;22.70;67.90;;;;;;6190532;28;84055;-65
2023/12/24 09:43:00;;;;;;;2.85;1.67;;;22.70;67.90;;;;;;6190058;28;84133;-66
2023/12/24 09:46:02;;;;;;;2.97;1.40;;;22.70;67.80;;;;;;6198480;28;83084;-65
2023/12/24 09:49:04;;;;;;;3.20;1.63;;;22.70;67.80;;;;;;6198154;28;83181;-65
2023/12/24 09:52:07;;;;;;;2.13;1.40;;;22.70;67.80;;;;;;6191546;28;84014;-65
2023/12/24 09:55:09;;;;;;;4.95;1.90;;;22.80;67.80;;;;;;6192933;28;84901;-65
2023/12/24 09:58:12;;;;;;;1.20;1.10;;;22.80;67.70;;;;;;6199408;28;84260;-65
2023/12/24 10:01:15;;;;;;;1.58;1.13;;;22.80;67.90;;;;;;6201446;28;84120;-65
2023/12/24 10:04:17;;;;;;;1.95;1.40;;;22.80;67.80;;;;;;6197860;28;83226;-65
2023/12/24 10:07:19;;;;;;;1.50;1.38;;;22.80;67.80;;;;;;6196470;28;83965;-66
2023/12/24 10:10:30;;;;;;;2.50;1.75;;;22.80;67.90;;;;;;6186051;28;84651;-65
2023/12/24 10:13:33;;;;;;;4.88;2.30;;;22.80;67.90;;;;;;6196288;28;84084;-65
2023/12/24 10:16:43;;;;;;;1.50;1.30;;;22.80;67.90;;;;;;6221969;28;83316;-65
2023/12/24 10:19:46;;;;;;;3.28;1.85;;;22.80;67.90;;;;;;6224006;28;84310;-65
2023/12/24 10:22:48;;;;;;;2.38;1.60;;;22.80;67.90;;;;;;6227104;28;84070;-65
2023/12/24 10:26:02;;;;;;;1.55;1.30;;;22.80;67.90;;;;;;6225825;28;85116;-66
2023/12/24 10:29:05;;;;;;;5.13;1.83;;;22.80;67.90;;;;;;6218347;28;83982;-65
2023/12/24 10:32:09;;;;;;;1.85;1.40;;;22.90;68.00;;;;;;6224638;28;84030;-66
2023/12/24 10:35:11;;;;;;;1.80;1.50;;;22.80;68.10;;;;;;6217170;28;84302;-66
2023/12/24 10:38:15;;;;;;;1.90;1.60;;;22.90;68.10;;;;;;6228089;28;84377;-65
2023/12/24 10:41:17;;;;;;;2.58;1.77;;;22.90;68.10;;;;;;6231812;28;84011;-65
2023/12/24 10:44:21;;;;;;;2.00;1.80;;;22.90;68.10;;;;;;6233370;28;83999;-65
2023/12/24 10:47:23;;;;;;;1.63;1.52;;;22.90;68.10;;;;;;6215370;28;83335;-66
2023/12/24 10:50:25;;;;;;;4.28;2.25;;;22.90;68.00;;;;;;6221758;28;84136;-65
2023/12/24 10:53:26;;;;;;;2.05;1.80;;;22.90;68.10;;;;;;6213674;28;85382;-66
2023/12/24 10:56:34;;;;;;;1.65;1.50;;;22.90;68.10;;;;;;6226527;28;85426;-65
2023/12/24 11:00:12;;;;;;;1.77;1.60;;;22.90;68.00;;;;;;6216893;28;84539;-65
2023/12/24 11:03:42;;;;;;;1.95;1.60;;;22.90;68.00;;;;;;6105179;28;82909;-65
2023/12/24 11:06:48;;;;;;;1.67;1.58;;;22.90;68.00;;;;;;6102030;28;84123;-65
2023/12/24 11:09:50;;;;;;;2.10;1.70;;;23.00;68.10;;;;;;6090257;28;83990;-65
2023/12/24 11:12:52;;;;;;;2.10;1.90;;;22.90;68.00;;;;;;6090880;28;83254;-67
2023/12/24 11:15:55;;;;;;;3.33;2.30;;;23.00;68.00;;;;;;6084946;28;84183;-67
2023/12/24 11:18:58;;;;;;;2.10;1.90;;;23.00;68.10;;;;;;6094779;28;83653;-67
2023/12/24 11:22:08;;;;;;;3.70;2.20;;;23.00;68.10;;;;;;6090381;28;82833;-67
2023/12/24 11:25:18;;;;;;;2.78;1.95;;;23.00;68.10;;;;;;6094747;28;84097;-67
2023/12/24 11:28:38;;;;;;;2.58;2.10;;;23.00;68.10;;;;;;6108704;28;83858;-67
2023/12/24 11:31:41;;;;;;;4.00;2.08;;;22.90;68.10;;;;;;6091081;28;84121;-67
2023/12/24 11:34:43;;;;;;;5.93;2.58;;;23.00;68.50;;;;;;6106413;28;84035;-67
2023/12/24 11:37:45;;;;;;;4.30;2.35;;;23.00;68.80;;;;;;6099245;28;84871;-67
2023/12/24 11:40:47;;;;;;;5.45;2.60;;;23.00;68.90;;;;;;6184913;28;84422;-67
2023/12/24 11:43:54;;;;;;;5.22;2.35;;;23.00;69.10;;;;;;6229302;28;82852;-67
2023/12/24 11:46:57;;;;;;;4.28;2.67;;;23.00;69.10;;;;;;6222322;28;84084;-67
2023/12/24 11:50:00;;;;;;;5.10;2.70;;;23.00;69.10;;;;;;6232466;28;83427;-67
2023/12/24 11:53:03;;;;;;;4.43;2.58;;;23.00;69.10;;;;;;6232235;28;84358;-67
2023/12/24 11:56:10;;;;;;;5.25;2.88;;;23.00;69.10;;;;;;6226132;28;84067;-67
2023/12/24 11:59:13;;;;;;;4.57;2.85;;;23.00;70.00;;;;;;6232697;28;85127;-67
2023/12/24 12:02:16;;;;;;;3.92;2.70;;;23.00;69.10;;;;;;6212790;28;85056;-67
2023/12/24 12:05:19;;;;;;;8.13;3.40;;;23.10;69.10;;;;;;6220470;28;82913;-67
2023/12/24 12:08:21;;;;;;;4.20;3.38;;;23.00;69.10;;;;;;6227344;28;82719;-67
2023/12/24 12:11:23;;;;;;;4.90;3.15;;;23.00;69.10;;;;;;6210626;28;84371;-65
2023/12/24 12:14:25;;;;;;;5.03;3.25;;;23.10;69.20;;;;;;6209977;28;84282;-65
2023/12/24 12:17:28;;;;;;;5.82;3.60;;;23.10;69.10;;;;;;6213145;28;84589;-65
2023/12/24 12:20:31;;;;;;;4.45;3.38;;;23.10;69.20;;;;;;6231848;28;83213;-65
2023/12/24 12:23:33;;;;;;;4.90;3.45;;;23.10;69.10;;;;;;6215431;28;83997;-67
2023/12/24 12:26:36;;;;;;;3.95;3.13;;;23.00;69.10;;;;;;6232503;28;84424;-67
2023/12/24 12:29:38;;;;;;;4.32;3.55;;;23.00;69.10;;;;;;6221668;28;85277;-67
2023/12/24 12:32:41;;;;;;;4.05;3.22;;;23.10;69.10;;;;;;6221480;28;84355;-67
2023/12/24 12:35:43;;;;;;;6.97;4.32;;;23.00;69.10;;;;;;6218787;28;83992;-67
2023/12/24 12:38:45;;;;;;;4.30;3.65;;;23.10;69.20;;;;;;6235082;28;84513;-67
2023/12/24 12:41:47;;;;;;;3.92;3.50;;;23.10;69.10;;;;;;6211812;28;84028;-67
2023/12/24 12:44:49;;;;;;;4.25;3.85;;;23.10;69.10;;;;;;6211653;28;83255;-67
2023/12/24 12:47:52;;;;;;;4.88;3.38;;;23.10;70.00;;;;;;6218417;28;84144;-67
2023/12/24 12:50:54;;;;;;;4.20;3.80;;;23.10;69.10;;;;;;6221355;28;83320;-67
2023/12/24 12:54:04;;;;;;;4.30;3.90;;;23.10;69.10;;;;;;6215751;28;84143;-67
2023/12/24 12:57:06;;;;;;;4.88;4.03;;;23.10;69.10;;;;;;6213218;28;83835;-67
2023/12/24 13:00:13;;;;;;;7.13;4.38;;;23.10;69.10;;;;;;6232965;28;85075;-67
2023/12/24 13:03:16;;;;;;;5.30;4.25;;;23.10;69.10;;;;;;6224107;28;83983;-67
2023/12/24 13:06:18;;;;;;;4.82;4.30;;;23.10;69.10;;;;;;6216937;28;84403;-67
2023/12/24 13:09:22;;;;;;;4.78;4.22;;;23.10;69.10;;;;;;6230292;28;84373;-67
2023/12/24 13:12:24;;;;;;;5.30;4.47;;;23.10;69.10;;;;;;6214979;28;84414;-67
2023/12/24 13:15:26;;;;;;;4.72;4.22;;;23.10;69.10;;;;;;6225090;28;83226;-67
2023/12/24 13:18:29;;;;;;;4.60;4.20;;;23.10;69.10;;;;;;6217341;28;82887;-67
2023/12/24 13:21:31;;;;;;;4.85;4.15;;;23.10;69.10;;;;;;6215079;28;83280;-67
2023/12/24 13:24:33;;;;;;;5.50;4.30;;;23.10;69.00;;;;;;6234088;28;82978;-68
2023/12/24 13:27:35;;;;;;;5.03;4.32;;;23.10;69.10;;;;;;6221775;28;84043;-67
2023/12/24 13:30:38;;;;;;;4.70;4.07;;;23.10;69.10;;;;;;6217247;28;85010;-67
2023/12/24 13:33:41;;;;;;;4.97;4.32;;;23.10;69.00;;;;;;6232497;28;82956;-67
2023/12/24 13:36:43;;;;;;;4.47;4.07;;;23.10;69.10;;;;;;6227939;28;84237;-67
2023/12/24 13:39:45;;;;;;;6.47;4.75;;;23.10;68.90;;;;;;6227986;28;83961;-68
2023/12/24 13:42:47;;;;;;;5.80;4.30;;;23.10;68.90;;;;;;6228358;28;84049;-67
2023/12/24 13:45:49;;;;;;;5.13;4.07;;;23.10;68.90;;;;;;6219879;28;84034;-67
2023/12/24 13:48:52;;;;;;;4.63;4.20;;;23.10;68.80;;;;;;6228109;28;84166;-67
2023/12/24 13:51:55;;;;;;;4.80;4.10;;;23.10;68.80;;;;;;6208260;28;83293;-67
2023/12/24 13:54:58;;;;;;;6.57;4.80;;;23.20;68.80;;;;;;6210971;28;84103;-67
2023/12/24 13:58:00;;;;;;;4.60;4.05;;;23.10;68.80;;;;;;6219723;28;84054;-67
2023/12/24 14:01:03;;;;;;;4.63;3.80;;;23.20;68.80;;;;;;6215701;28;84989;-67
2023/12/24 14:04:06;;;;;;;4.68;4.28;;;23.20;68.80;;;;;;6221629;28;84121;-67
2023/12/24 14:07:08;;;;;;;5.15;4.10;;;23.10;68.70;;;;;;6212949;28;84340;-67
2023/12/24 14:10:11;;;;;;;5.00;4.47;;;23.10;68.70;;;;;;6217831;28;84101;-67
2023/12/24 14:13:13;;;;;;;4.28;3.88;;;23.10;68.70;;;;;;6213434;28;84174;-67
2023/12/24 14:16:15;;;;;;;4.80;4.25;;;23.20;68.80;;;;;;6224026;28;84198;-67
2023/12/24 14:19:18;;;;;;;5.18;4.68;;;23.10;68.60;;;;;;6223271;28;84394;-65
2023/12/24 14:22:21;;;;;;;4.95;4.45;;;23.20;68.70;;;;;;6220543;28;82183;-65
2023/12/24 14:25:23;;;;;;;5.00;4.15;;;23.10;68.60;;;;;;6220959;28;84174;-65
2023/12/24 14:28:25;;;;;;;4.20;3.80;;;23.10;68.50;;;;;;6209142;28;84102;-65
2023/12/24 14:31:27;;;;;;;4.47;4.07;;;23.10;68.50;;;;;;6215450;28;85000;-65
2023/12/24 14:34:30;;;;;;;4.50;4.03;;;23.10;68.40;;;;;;6211808;28;84042;-65
2023/12/24 14:37:32;;;;;;;4.25;3.85;;;23.10;68.40;;;;;;6220170;28;84073;-65
2023/12/24 14:40:34;;;;;;;5.80;4.47;;;23.20;68.40;;;;;;6211263;28;83944;-65
2023/12/24 14:43:36;;;;;;;5.32;4.50;;;23.10;68.40;;;;;;6221776;28;83237;-65
2023/12/24 14:46:39;;;;;;;4.30;3.85;;;23.20;68.40;;;;;;6220357;28;83793;-65
2023/12/24 14:49:42;;;;;;;4.30;3.90;;;23.10;68.20;;;;;;6209360;28;84006;-65
2023/12/24 14:52:44;;;;;;;4.00;3.63;;;23.20;68.30;;;;;;6217973;28;83570;-65
2023/12/24 14:55:46;;;;;;;4.18;3.55;;;23.10;68.20;;;;;;6214831;28;83971;-66
2023/12/24 14:58:48;;;;;;;3.92;3.53;;;23.10;68.30;;;;;;6222447;28;82932;-65
2023/12/24 15:01:50;;;;;;;4.30;3.90;;;23.10;68.20;;;;;;6209307;28;83833;-65
2023/12/24 15:04:55;;;;;;;4.30;3.90;;;23.10;68.20;;;;;;6227363;28;83926;-66
2023/12/24 15:07:57;;;;;;;4.50;4.10;;;23.20;68.30;;;;;;6230919;28;84157;-65
2023/12/24 15:10:59;;;;;;;4.63;4.15;;;23.20;68.40;;;;;;6221898;28;82913;-65
2023/12/24 15:14:01;;;;;;;4.85;4.05;;;23.10;68.30;;;;;;6221429;28;84253;-66
2023/12/24 15:17:03;;;;;;;5.38;4.03;;;23.20;68.40;;;;;;6234334;28;86055;-65
2023/12/24 15:20:08;;;;;;;3.97;3.60;;;23.10;68.40;;;;;;6223099;28;83936;-65
2023/12/24 15:23:10;;;;;;;4.07;3.70;;;23.20;68.50;;;;;;6232545;28;83356;-65
2023/12/24 15:26:12;;;;;;;3.95;3.60;;;23.20;68.50;;;;;;6224551;28;83857;-66
2023/12/24 15:29:14;;;;;;;3.70;3.40;;;23.20;68.50;;;;;;6227955;28;83018;-67
2023/12/24 15:32:16;;;;;;;4.15;3.75;;;23.20;68.60;;;;;;6230076;28;85149;-67
2023/12/24 15:35:19;;;;;;;3.65;3.35;;;23.10;68.40;;;;;;6223071;28;84325;-68
2023/12/24 15:38:21;;;;;;;3.72;3.42;;;23.20;68.60;;;;;;6234135;28;83297;-68
2023/12/24 15:41:24;;;;;;;4.05;3.67;;;23.20;68.80;;;;;;6223230;28;83959;-67
2023/12/24 15:44:26;;;;;;;4.05;3.70;;;23.10;68.60;;;;;;6235403;28;84103;-67
2023/12/24 15:47:28;;;;;;;3.90;3.50;;;23.20;68.80;;;;;;6222942;28;84386;-67
2023/12/24 15:50:32;;;;;;;3.85;3.55;;;23.20;68.80;;;;;;6215040;28;82958;-68
2023/12/24 15:53:34;;;;;;;3.45;3.15;;;23.20;68.70;;;;;;6228426;28;82162;-67